Time;durP1;ratioP1;P1;durP2;ratioP2;P2;SDS_P1;SDS_P2;PMS_P1;PMS_P2;Temp;Humidity;BMP_temperature;BMP_pressure;BME280_temperature;BME280_humidity;BME280_pressure;Samples;Min_cycle;Max_cycle;Signal;HPM_P1;HPM_P2
2022/03/26 00:00:57;;;;;;;32.05;11.77;;;10.90;51.80;;;;;;4896505;29;20791;-73
2022/03/26 00:03:25;;;;;;;25.85;10.68;;;10.90;52.40;;;;;;4908613;29;20059;-73
2022/03/26 00:05:52;;;;;;;29.83;10.90;;;10.80;52.70;;;;;;4878930;29;20051;-73
2022/03/26 00:08:19;;;;;;;25.17;10.38;;;10.90;52.80;;;;;;4908023;29;20064;-73
2022/03/26 00:10:46;;;;;;;22.23;10.02;;;10.80;53.00;;;;;;4882258;29;20062;-73
2022/03/26 00:13:13;;;;;;;21.63;9.30;;;10.90;53.00;;;;;;4890903;29;20127;-73
2022/03/26 00:15:41;;;;;;;19.00;7.80;;;11.00;52.80;;;;;;4913266;29;20051;-73
2022/03/26 00:18:15;;;;;;;26.15;8.77;;;10.80;53.00;;;;;;4912987;29;20071;-73
2022/03/26 00:20:42;;;;;;;20.33;8.07;;;10.90;53.10;;;;;;4908140;29;20178;-73
2022/03/26 00:23:09;;;;;;;23.75;8.70;;;10.70;53.60;;;;;;4894602;29;20063;-73
2022/03/26 00:25:36;;;;;;;16.75;7.10;;;10.70;54.20;;;;;;4885969;29;20130;-73
2022/03/26 00:28:04;;;;;;;16.48;6.30;;;10.70;54.30;;;;;;4911029;29;20052;-73
2022/03/26 00:30:34;;;;;;;21.63;7.35;;;10.60;54.40;;;;;;4907744;29;20130;-73
2022/03/26 00:33:01;;;;;;;18.00;6.30;;;10.80;54.40;;;;;;4896988;29;20063;-73
2022/03/26 00:35:28;;;;;;;18.15;6.47;;;10.80;54.30;;;;;;4896944;29;20044;-73
2022/03/26 00:37:55;;;;;;;14.13;6.72;;;10.70;54.60;;;;;;4919672;29;20058;-73
2022/03/26 00:40:22;;;;;;;17.77;7.22;;;10.70;54.30;;;;;;4913097;29;20099;-73
2022/03/26 00:42:50;;;;;;;13.63;6.20;;;10.90;54.00;;;;;;4896775;29;20066;-73
2022/03/26 00:45:17;;;;;;;21.83;6.20;;;10.90;54.10;;;;;;4911817;29;20184;-73
2022/03/26 00:47:44;;;;;;;18.50;7.03;;;10.90;54.00;;;;;;4912974;29;20091;-73
2022/03/26 00:50:11;;;;;;;19.98;7.57;;;10.90;53.70;;;;;;4916205;29;20056;-73
2022/03/26 00:52:38;;;;;;;13.82;6.43;;;10.90;53.80;;;;;;4898264;29;20191;-73
2022/03/26 00:55:06;;;;;;;14.60;6.32;;;10.80;53.70;;;;;;4898919;29;20055;-73
2022/03/26 00:57:33;;;;;;;16.35;6.40;;;10.80;54.10;;;;;;4912955;29;22465;-73
2022/03/26 01:00:00;;;;;;;13.07;6.10;;;10.70;54.50;;;;;;4890231;29;20062;-73
2022/03/26 01:02:27;;;;;;;16.17;6.78;;;10.80;54.20;;;;;;4896287;29;20151;-73
2022/03/26 01:04:54;;;;;;;17.63;6.85;;;10.60;54.80;;;;;;4895550;29;20884;-73
2022/03/26 01:07:21;;;;;;;21.05;6.85;;;10.50;54.60;;;;;;4896580;29;20071;-73
2022/03/26 01:09:48;;;;;;;19.23;7.22;;;10.50;54.90;;;;;;4883150;29;22624;-73
2022/03/26 01:12:15;;;;;;;21.70;7.38;;;10.60;55.00;;;;;;4894249;29;20497;-73
2022/03/26 01:14:42;;;;;;;16.70;7.57;;;10.40;55.40;;;;;;4898131;29;20047;-73
2022/03/26 01:17:09;;;;;;;20.20;7.80;;;10.30;55.70;;;;;;4896697;29;20090;-73
2022/03/26 01:19:37;;;;;;;15.40;6.80;;;10.30;55.80;;;;;;4897421;29;20059;-73
2022/03/26 01:22:04;;;;;;;18.15;6.97;;;10.40;55.70;;;;;;4876651;29;20079;-73
2022/03/26 01:24:32;;;;;;;18.45;6.82;;;10.30;55.70;;;;;;4913229;29;20048;-73
2022/03/26 01:26:59;;;;;;;18.63;7.82;;;10.30;55.90;;;;;;4876885;29;20084;-73
2022/03/26 01:29:26;;;;;;;22.05;8.30;;;10.30;56.10;;;;;;4914998;29;20111;-73
2022/03/26 01:31:53;;;;;;;16.75;7.60;;;10.10;56.00;;;;;;4895701;29;20055;-73
2022/03/26 01:34:22;;;;;;;17.38;7.30;;;10.20;55.90;;;;;;4879472;29;20062;-73
2022/03/26 01:36:49;;;;;;;16.70;7.32;;;10.20;55.90;;;;;;4914469;29;20056;-73
2022/03/26 01:39:18;;;;;;;12.85;6.80;;;10.10;56.10;;;;;;4899319;29;20052;-73
2022/03/26 01:41:45;;;;;;;17.67;7.57;;;9.80;56.60;;;;;;4896973;29;20047;-73
2022/03/26 01:44:13;;;;;;;19.67;7.68;;;9.70;57.40;;;;;;4895265;29;20059;-73
2022/03/26 01:46:49;;;;;;;17.33;6.68;;;9.80;57.30;;;;;;4896258;29;20150;-73
2022/03/26 01:49:17;;;;;;;21.30;7.93;;;9.80;57.10;;;;;;4901306;29;20043;-73
2022/03/26 01:51:44;;;;;;;19.13;7.45;;;9.90;57.10;;;;;;4898181;29;20044;-73
2022/03/26 01:54:14;;;;;;;17.00;6.80;;;9.90;56.80;;;;;;4900508;29;20060;-73
2022/03/26 01:56:43;;;;;;;16.88;7.40;;;9.80;56.90;;;;;;4916555;29;20064;-73
2022/03/26 01:59:11;;;;;;;18.80;7.13;;;9.80;57.00;;;;;;4895887;29;20159;-73
2022/03/26 02:01:39;;;;;;;19.20;7.35;;;9.80;57.00;;;;;;4885253;29;20059;-73
2022/03/26 02:04:08;;;;;;;15.75;6.78;;;9.70;57.20;;;;;;4891157;29;20051;-73
2022/03/26 02:06:39;;;;;;;19.05;6.53;;;9.70;57.20;;;;;;4902838;29;20044;-73
2022/03/26 02:09:08;;;;;;;17.80;6.35;;;9.60;57.30;;;;;;4917320;29;20076;-73
2022/03/26 02:11:38;;;;;;;16.30;7.15;;;9.40;57.80;;;;;;4900845;29;22331;-73
2022/03/26 02:14:07;;;;;;;15.93;6.70;;;9.40;58.20;;;;;;4900217;29;22488;-73
2022/03/26 02:16:36;;;;;;;19.50;7.53;;;9.20;58.40;;;;;;4916086;29;20087;-73
2022/03/26 02:19:06;;;;;;;15.32;6.72;;;9.20;58.90;;;;;;4916419;29;20131;-73
2022/03/26 02:21:34;;;;;;;20.08;8.10;;;9.30;58.60;;;;;;4899167;29;20055;-73
2022/03/26 02:24:03;;;;;;;17.83;7.63;;;9.10;59.10;;;;;;4883291;29;20142;-73
2022/03/26 02:26:30;;;;;;;20.90;7.72;;;9.10;59.50;;;;;;4907183;29;20198;-73
2022/03/26 02:29:11;;;;;;;19.50;6.97;;;9.20;59.10;;;;;;4903842;29;20111;-73
2022/03/26 02:31:38;;;;;;;23.05;7.68;;;9.30;58.70;;;;;;4919850;29;20044;-73
2022/03/26 02:34:07;;;;;;;23.95;7.55;;;9.40;58.50;;;;;;4893121;29;22467;-73
2022/03/26 02:36:35;;;;;;;19.58;6.50;;;9.40;58.40;;;;;;4900992;29;20059;-73
2022/03/26 02:39:03;;;;;;;15.55;6.10;;;9.50;58.30;;;;;;4900518;29;20060;-73
2022/03/26 02:41:31;;;;;;;21.48;6.70;;;9.50;57.90;;;;;;4900150;29;20980;-73
2022/03/26 02:43:58;;;;;;;21.67;6.85;;;9.40;58.50;;;;;;4901317;29;20051;-73
2022/03/26 02:46:25;;;;;;;19.35;6.35;;;9.20;59.10;;;;;;4892548;29;22345;-73
2022/03/26 02:48:52;;;;;;;16.13;6.22;;;9.00;59.60;;;;;;4886155;29;20040;-73
2022/03/26 02:51:19;;;;;;;17.80;6.15;;;9.20;59.10;;;;;;4917538;29;20574;-73
2022/03/26 02:53:46;;;;;;;16.58;7.03;;;9.20;58.90;;;;;;4902815;29;20111;-73
2022/03/26 02:56:13;;;;;;;12.20;5.63;;;9.10;59.10;;;;;;4902428;29;20174;-73
2022/03/26 02:58:41;;;;;;;17.15;5.35;;;9.00;59.80;;;;;;4902023;29;20048;-73
2022/03/26 03:01:08;;;;;;;14.70;6.25;;;8.90;60.10;;;;;;4898647;29;20190;-73
2022/03/26 03:03:35;;;;;;;14.75;6.38;;;8.80;60.30;;;;;;4896009;29;20092;-73
2022/03/26 03:06:02;;;;;;;16.63;5.75;;;8.90;60.10;;;;;;4916811;29;20055;-73
2022/03/26 03:08:29;;;;;;;14.20;6.10;;;8.80;59.60;;;;;;4902146;29;20151;-73
2022/03/26 03:10:56;;;;;;;18.10;6.38;;;8.70;60.70;;;;;;4897623;29;20055;-73
2022/03/26 03:13:23;;;;;;;17.65;6.95;;;8.80;60.40;;;;;;4882782;29;20052;-73
2022/03/26 03:15:51;;;;;;;14.88;6.43;;;8.90;60.80;;;;;;4903212;29;20047;-73
2022/03/26 03:18:19;;;;;;;15.90;6.15;;;9.00;59.80;;;;;;4917590;29;20040;-73
2022/03/26 03:20:46;;;;;;;14.10;5.85;;;9.00;59.50;;;;;;4908862;29;20058;-73
2022/03/26 03:23:13;;;;;;;19.15;6.95;;;9.10;59.40;;;;;;4916832;29;20067;-73
2022/03/26 03:25:41;;;;;;;12.95;5.15;;;8.90;59.40;;;;;;4898556;29;20059;-73
2022/03/26 03:28:08;;;;;;;14.32;5.68;;;8.70;60.60;;;;;;4898380;29;20786;-73
2022/03/26 03:30:35;;;;;;;13.40;5.78;;;8.90;60.10;;;;;;4902340;29;21021;-73
2022/03/26 03:33:03;;;;;;;20.40;7.10;;;8.80;60.00;;;;;;4918116;29;20051;-73
2022/03/26 03:35:30;;;;;;;18.38;6.28;;;8.70;60.20;;;;;;4882075;29;20091;-73
2022/03/26 03:37:57;;;;;;;15.43;5.90;;;8.60;60.40;;;;;;4887484;29;20055;-73
2022/03/26 03:40:24;;;;;;;14.65;6.10;;;8.60;61.00;;;;;;4883559;29;22216;-73
2022/03/26 03:42:53;;;;;;;17.85;6.50;;;8.00;62.40;;;;;;4899655;29;20491;-73
2022/03/26 03:45:20;;;;;;;17.45;6.70;;;8.20;62.20;;;;;;4911790;29;21290;-73
2022/03/26 03:47:47;;;;;;;16.08;6.30;;;8.20;62.30;;;;;;4896346;29;20052;-73
2022/03/26 03:50:15;;;;;;;18.80;6.53;;;8.10;62.50;;;;;;4881865;29;20071;-73
2022/03/26 03:52:42;;;;;;;26.08;8.13;;;8.20;62.20;;;;;;4898171;29;20055;-73
2022/03/26 03:55:09;;;;;;;17.55;6.82;;;8.10;63.00;;;;;;4898581;29;20075;-73
2022/03/26 03:57:42;;;;;;;18.00;7.00;;;8.20;62.90;;;;;;4914419;29;20471;-73
2022/03/26 04:00:11;;;;;;;12.90;5.88;;;8.30;61.70;;;;;;4900710;29;20055;-73
2022/03/26 04:02:40;;;;;;;17.55;6.43;;;8.30;61.90;;;;;;4891641;29;20951;-73
2022/03/26 04:05:09;;;;;;;13.93;5.90;;;8.20;61.90;;;;;;4913346;29;20118;-73
2022/03/26 04:07:43;;;;;;;18.52;6.43;;;8.20;62.00;;;;;;4907012;29;20127;-73
2022/03/26 04:10:11;;;;;;;18.77;5.78;;;8.20;62.00;;;;;;4912295;29;20052;-73
2022/03/26 04:12:40;;;;;;;16.30;6.22;;;8.30;61.60;;;;;;4913444;29;20118;-73
2022/03/26 04:15:09;;;;;;;19.38;6.43;;;8.50;61.20;;;;;;4915888;29;21399;-73
2022/03/26 04:17:37;;;;;;;11.48;5.22;;;8.50;60.90;;;;;;4913827;29;20134;-73
2022/03/26 04:20:08;;;;;;;16.17;5.63;;;8.40;61.10;;;;;;4913574;29;20059;-73
2022/03/26 04:22:35;;;;;;;14.35;5.63;;;8.40;61.90;;;;;;4896764;29;20054;-73
2022/03/26 04:25:04;;;;;;;11.27;4.47;;;8.30;61.60;;;;;;4899942;29;20119;-73
2022/03/26 04:27:32;;;;;;;12.88;5.22;;;8.40;61.50;;;;;;4913289;29;20052;-73
2022/03/26 04:29:59;;;;;;;12.75;4.82;;;8.40;61.10;;;;;;4909288;29;20050;-73
2022/03/26 04:32:30;;;;;;;18.13;5.32;;;8.30;61.80;;;;;;4914417;29;20131;-73
2022/03/26 04:34:57;;;;;;;15.00;5.55;;;8.30;61.50;;;;;;4898263;29;20092;-73
2022/03/26 04:37:24;;;;;;;19.23;5.28;;;8.20;61.90;;;;;;4896783;29;20134;-73
2022/03/26 04:39:51;;;;;;;13.65;5.75;;;8.20;62.20;;;;;;4910746;29;20135;-73
2022/03/26 04:42:18;;;;;;;14.52;4.85;;;8.20;61.90;;;;;;4876920;29;20064;-73
2022/03/26 04:44:45;;;;;;;18.65;5.85;;;8.10;62.30;;;;;;4892039;29;20079;-73
2022/03/26 04:47:12;;;;;;;14.43;4.63;;;8.20;62.00;;;;;;4898662;29;22614;-73
2022/03/26 04:49:39;;;;;;;11.82;4.72;;;7.90;62.60;;;;;;4915308;29;20404;-73
2022/03/26 04:52:06;;;;;;;16.58;5.20;;;8.00;62.70;;;;;;4916227;29;20061;-73
2022/03/26 04:54:33;;;;;;;17.65;6.15;;;8.00;62.30;;;;;;4896403;29;20092;-73
2022/03/26 04:57:00;;;;;;;17.60;5.20;;;8.10;62.00;;;;;;4898262;29;20060;-73
2022/03/26 04:59:27;;;;;;;18.88;5.88;;;8.10;61.80;;;;;;4900440;29;22349;-73
2022/03/26 05:01:54;;;;;;;14.05;5.85;;;8.20;61.80;;;;;;4903193;29;20525;-73
2022/03/26 05:04:21;;;;;;;15.57;6.05;;;8.20;61.50;;;;;;4911739;29;20048;-73
2022/03/26 05:06:49;;;;;;;16.45;6.40;;;8.20;61.90;;;;;;4896333;29;20059;-73
2022/03/26 05:09:16;;;;;;;14.10;5.65;;;8.30;61.60;;;;;;4912670;29;20052;-73
2022/03/26 05:11:43;;;;;;;23.60;6.57;;;8.40;62.00;;;;;;4894796;29;20047;-74
2022/03/26 05:14:10;;;;;;;16.90;5.60;;;8.40;61.20;;;;;;4914907;29;20087;-73
2022/03/26 05:16:37;;;;;;;17.35;5.40;;;8.20;61.80;;;;;;4910277;29;20060;-73
2022/03/26 05:19:04;;;;;;;18.00;5.55;;;8.30;61.90;;;;;;4913649;29;20755;-73
2022/03/26 05:21:31;;;;;;;18.88;5.80;;;8.30;61.30;;;;;;4912124;29;20058;-73
2022/03/26 05:23:58;;;;;;;16.27;5.75;;;8.40;62.20;;;;;;4898776;29;20048;-73
2022/03/26 05:26:25;;;;;;;11.98;5.20;;;8.40;62.00;;;;;;4914720;29;20173;-73
2022/03/26 05:28:52;;;;;;;16.63;6.50;;;8.40;62.30;;;;;;4905035;29;20159;-76
2022/03/26 05:31:19;;;;;;;18.60;8.20;;;8.40;62.30;;;;;;4914746;29;20048;-73
2022/03/26 05:33:46;;;;;;;19.27;8.73;;;8.50;62.40;;;;;;4898242;29;20067;-73
2022/03/26 05:36:13;;;;;;;20.35;8.18;;;8.50;62.40;;;;;;4911541;29;20068;-73
2022/03/26 05:38:40;;;;;;;20.58;8.43;;;8.70;62.20;;;;;;4897032;29;20574;-73
2022/03/26 05:41:07;;;;;;;20.77;8.30;;;8.80;62.00;;;;;;4913508;29;22306;-73
2022/03/26 05:43:34;;;;;;;18.50;8.73;;;8.70;62.50;;;;;;4915587;29;20059;-74
2022/03/26 05:46:02;;;;;;;23.17;8.55;;;8.80;62.30;;;;;;4917892;29;20056;-73
2022/03/26 05:48:29;;;;;;;17.90;7.43;;;8.80;62.60;;;;;;4898266;29;20048;-74
2022/03/26 05:50:56;;;;;;;17.27;8.27;;;9.00;62.50;;;;;;4912141;29;20044;-73
2022/03/26 05:53:23;;;;;;;17.55;6.68;;;8.80;62.70;;;;;;4912112;29;20126;-73
2022/03/26 05:55:50;;;;;;;19.77;6.25;;;8.70;63.30;;;;;;4887643;29;20060;-73
2022/03/26 05:58:17;;;;;;;13.60;6.50;;;8.90;62.70;;;;;;4899797;29;20062;-74
2022/03/26 06:00:44;;;;;;;14.25;5.82;;;9.10;62.10;;;;;;4895408;29;20047;-73
2022/03/26 06:03:11;;;;;;;21.23;7.22;;;9.20;62.00;;;;;;4901278;29;20071;-73
2022/03/26 06:05:38;;;;;;;16.73;5.82;;;9.30;61.90;;;;;;4900055;29;20055;-74
2022/03/26 06:08:08;;;;;;;16.25;6.40;;;9.50;61.40;;;;;;4892948;29;21032;-74
2022/03/26 06:10:35;;;;;;;15.13;5.75;;;9.70;61.50;;;;;;4912190;29;20051;-74
2022/03/26 06:13:02;;;;;;;13.98;5.82;;;9.80;60.70;;;;;;4887356;29;20062;-75
2022/03/26 06:15:29;;;;;;;15.73;5.97;;;9.90;61.20;;;;;;4903458;29;20067;-75
2022/03/26 06:18:10;;;;;;;11.80;4.85;;;9.70;61.10;;;;;;4904101;29;20195;-75
2022/03/26 06:20:37;;;;;;;14.57;6.25;;;9.80;61.10;;;;;;4915285;29;20055;-75
2022/03/26 06:23:04;;;;;;;17.73;6.38;;;9.80;61.00;;;;;;4913261;29;20111;-74
2022/03/26 06:25:31;;;;;;;19.45;8.15;;;9.80;61.00;;;;;;4898524;29;20818;-75
2022/03/26 06:27:59;;;;;;;20.73;8.85;;;9.90;60.80;;;;;;4902402;29;20051;-75
2022/03/26 06:30:26;;;;;;;16.80;6.55;;;10.00;61.10;;;;;;4903903;29;20127;-75
2022/03/26 06:32:53;;;;;;;20.63;6.72;;;10.00;60.80;;;;;;4919045;29;20051;-75
2022/03/26 06:35:20;;;;;;;15.35;7.43;;;10.20;60.70;;;;;;4904628;29;20068;-75
2022/03/26 06:37:47;;;;;;;13.32;6.03;;;10.40;60.10;;;;;;4902443;29;20063;-75
2022/03/26 06:40:14;;;;;;;14.73;5.25;;;10.60;59.90;;;;;;4916493;29;20092;-74
2022/03/26 06:42:41;;;;;;;13.90;5.65;;;10.60;59.40;;;;;;4905303;29;20083;-74
2022/03/26 06:45:13;;;;;;;16.17;6.20;;;10.70;59.00;;;;;;4919604;29;20052;-75
2022/03/26 06:47:40;;;;;;;14.25;5.18;;;10.80;59.40;;;;;;4901922;29;20380;-75
2022/03/26 06:50:07;;;;;;;14.10;5.78;;;10.90;59.00;;;;;;4903350;29;20052;-75
2022/03/26 06:52:34;;;;;;;16.63;5.97;;;11.00;58.70;;;;;;4889354;29;20467;-75
2022/03/26 06:55:06;;;;;;;16.27;5.45;;;11.00;58.20;;;;;;4903036;29;20062;-75
2022/03/26 06:57:34;;;;;;;18.10;6.32;;;11.10;57.90;;;;;;4900177;29;20050;-75
2022/03/26 07:00:01;;;;;;;18.08;6.10;;;11.20;56.70;;;;;;4925656;29;22455;-75
2022/03/26 07:02:28;;;;;;;18.00;6.45;;;11.20;56.90;;;;;;4900684;29;20063;-75
2022/03/26 07:04:55;;;;;;;14.73;6.30;;;11.40;56.50;;;;;;4900718;29;20047;-75
2022/03/26 07:07:22;;;;;;;17.88;6.78;;;11.40;56.10;;;;;;4904550;29;20526;-75
2022/03/26 07:09:50;;;;;;;14.43;6.07;;;11.50;55.20;;;;;;4903192;29;20510;-76
2022/03/26 07:12:18;;;;;;;16.27;7.40;;;11.70;55.20;;;;;;4920776;29;20054;-76
2022/03/26 07:14:46;;;;;;;19.95;8.70;;;11.80;55.60;;;;;;4888153;29;20040;-77
2022/03/26 07:17:13;;;;;;;16.70;7.50;;;11.90;54.10;;;;;;4899891;29;20551;-77
2022/03/26 07:19:40;;;;;;;30.35;9.48;;;11.90;52.80;;;;;;4919227;29;20051;-76
2022/03/26 07:22:07;;;;;;;20.40;8.65;;;12.00;53.50;;;;;;4909737;29;20063;-76
2022/03/26 07:24:34;;;;;;;21.05;7.95;;;12.10;53.10;;;;;;4902156;29;20050;-76
2022/03/26 07:27:01;;;;;;;19.80;7.45;;;12.20;52.40;;;;;;4901035;29;20055;-76
2022/03/26 07:29:28;;;;;;;15.82;7.07;;;12.30;52.80;;;;;;4890672;29;20162;-76
2022/03/26 07:31:55;;;;;;;19.45;7.82;;;12.30;52.30;;;;;;4895085;29;20632;-77
2022/03/26 07:34:23;;;;;;;18.77;7.70;;;12.40;52.60;;;;;;4911221;29;20051;-76
2022/03/26 07:36:50;;;;;;;23.00;7.80;;;12.50;52.30;;;;;;4915040;29;20042;-76
2022/03/26 07:39:17;;;;;;;18.20;7.35;;;12.60;52.10;;;;;;4917344;29;20067;-76
2022/03/26 07:41:44;;;;;;;16.20;7.72;;;12.70;51.10;;;;;;4916065;29;20051;-76
2022/03/26 07:44:11;;;;;;;20.77;9.13;;;12.90;52.00;;;;;;4918834;29;20096;-77
2022/03/26 07:46:38;;;;;;;19.60;8.65;;;13.00;50.80;;;;;;4902874;29;20067;-77
2022/03/26 07:49:05;;;;;;;18.58;8.35;;;13.00;52.10;;;;;;4917598;29;20134;-77
2022/03/26 07:51:32;;;;;;;16.42;8.18;;;13.10;50.70;;;;;;4914293;29;20518;-76
2022/03/26 07:53:59;;;;;;;19.70;8.10;;;13.10;49.50;;;;;;4883163;29;20227;-76
2022/03/26 07:56:27;;;;;;;19.88;9.07;;;13.10;49.70;;;;;;4918502;29;20490;-76
2022/03/26 07:58:54;;;;;;;19.50;8.65;;;13.20;49.60;;;;;;4901271;29;20353;-76
2022/03/26 08:01:21;;;;;;;18.50;6.97;;;13.30;50.10;;;;;;4905718;29;20060;-76
2022/03/26 08:03:53;;;;;;;15.85;6.97;;;13.50;50.10;;;;;;4899390;29;20087;-76
2022/03/26 08:06:22;;;;;;;21.48;8.93;;;13.60;50.30;;;;;;4916042;29;20090;-77
2022/03/26 08:08:49;;;;;;;18.55;7.40;;;13.80;49.60;;;;;;4903399;29;20066;-77
2022/03/26 08:11:17;;;;;;;16.95;7.05;;;13.80;49.70;;;;;;4916481;29;20052;-76
2022/03/26 08:13:44;;;;;;;22.30;9.10;;;14.00;49.10;;;;;;4901333;29;20052;-77
2022/03/26 08:16:12;;;;;;;22.30;8.20;;;14.10;48.90;;;;;;4918122;29;20131;-77
2022/03/26 08:18:39;;;;;;;19.40;7.25;;;14.00;48.50;;;;;;4913944;29;20070;-77
2022/03/26 08:21:07;;;;;;;19.73;8.38;;;14.20;48.80;;;;;;4896627;29;20063;-76
2022/03/26 08:23:33;;;;;;;16.20;8.13;;;14.30;48.80;;;;;;4917706;29;20044;-76
2022/03/26 08:28:46;;;;;;;15.80;7.68;;;14.60;47.80;;;;;;4893978;29;20054;-77
2022/03/26 08:31:13;;;;;;;17.75;7.28;;;14.70;47.20;;;;;;4916922;29;20114;-77
2022/03/26 08:33:41;;;;;;;18.38;8.25;;;14.90;47.70;;;;;;4916594;29;20139;-77
2022/03/26 08:36:09;;;;;;;20.67;8.38;;;15.00;46.90;;;;;;4910410;29;21083;-77
2022/03/26 08:38:38;;;;;;;19.95;8.48;;;15.10;46.70;;;;;;4895244;29;20052;-77
2022/03/26 08:41:05;;;;;;;19.67;8.48;;;15.20;47.50;;;;;;4897797;29;20135;-77
2022/03/26 08:43:32;;;;;;;18.02;8.10;;;15.30;46.80;;;;;;4917698;29;20087;-75
2022/03/26 08:45:59;;;;;;;21.70;9.32;;;15.30;46.50;;;;;;4902341;29;20056;-77
2022/03/26 08:48:26;;;;;;;17.65;8.70;;;15.50;46.80;;;;;;4918302;29;20047;-75
2022/03/26 08:50:54;;;;;;;27.52;9.32;;;15.50;46.90;;;;;;4883555;29;20048;-75
2022/03/26 08:53:21;;;;;;;25.00;9.05;;;15.70;45.70;;;;;;4917976;29;20136;-77
2022/03/26 08:55:48;;;;;;;21.63;8.45;;;15.70;45.90;;;;;;4916793;29;20062;-76
2022/03/26 08:58:17;;;;;;;19.60;8.75;;;15.90;46.40;;;;;;4918207;29;22410;-77
2022/03/26 09:00:47;;;;;;;22.58;8.48;;;15.90;45.60;;;;;;4914979;29;20451;-76
2022/03/26 09:03:17;;;;;;;20.85;8.60;;;15.90;45.20;;;;;;4885612;29;20775;-74
2022/03/26 09:05:46;;;;;;;19.77;9.00;;;16.00;45.50;;;;;;4916510;29;20063;-74
2022/03/26 09:08:13;;;;;;;25.83;9.98;;;16.30;45.50;;;;;;4913952;29;20071;-76
2022/03/26 09:10:40;;;;;;;19.35;8.43;;;16.30;46.20;;;;;;4894839;29;20052;-76
2022/03/26 09:13:07;;;;;;;24.38;9.00;;;16.20;45.00;;;;;;4884164;29;20516;-77
2022/03/26 09:15:34;;;;;;;20.50;10.00;;;16.20;45.90;;;;;;4903869;29;20063;-77
2022/03/26 09:18:02;;;;;;;22.40;8.73;;;16.40;45.40;;;;;;4905573;29;20095;-77
2022/03/26 09:20:29;;;;;;;19.45;8.30;;;16.60;45.40;;;;;;4899749;29;20059;-75
2022/03/26 09:22:56;;;;;;;20.20;8.35;;;16.90;44.60;;;;;;4912278;29;20052;-77
2022/03/26 09:25:24;;;;;;;17.83;8.25;;;17.10;44.50;;;;;;4897204;29;20097;-75
2022/03/26 09:27:51;;;;;;;21.85;9.18;;;17.00;44.40;;;;;;4914524;29;20099;-75
2022/03/26 09:30:18;;;;;;;18.20;8.48;;;17.00;44.30;;;;;;4897189;29;20164;-75
2022/03/26 09:32:46;;;;;;;20.10;8.52;;;17.00;45.00;;;;;;4892718;29;20048;-75
2022/03/26 09:35:14;;;;;;;17.02;8.23;;;17.10;44.40;;;;;;4899681;29;20043;-75
2022/03/26 09:37:41;;;;;;;17.20;7.07;;;17.10;44.00;;;;;;4892775;29;20059;-75
2022/03/26 09:40:10;;;;;;;20.65;7.47;;;17.30;44.30;;;;;;4897239;29;20052;-75
2022/03/26 09:42:39;;;;;;;15.55;7.10;;;17.50;43.20;;;;;;4915256;29;20059;-75
2022/03/26 09:45:08;;;;;;;16.38;6.57;;;17.50;42.30;;;;;;4889196;29;20055;-75
2022/03/26 09:47:36;;;;;;;17.20;6.95;;;17.60;41.50;;;;;;4902723;29;20056;-75
2022/03/26 09:50:06;;;;;;;14.48;6.60;;;17.50;42.50;;;;;;4900039;29;20092;-75
2022/03/26 09:52:35;;;;;;;16.15;6.55;;;17.70;41.80;;;;;;4901500;29;22395;-75
2022/03/26 09:55:11;;;;;;;23.70;6.90;;;17.80;41.70;;;;;;4920117;29;20106;-75
2022/03/26 09:57:40;;;;;;;18.17;5.22;;;17.90;41.90;;;;;;4900630;29;20588;-75
2022/03/26 10:00:09;;;;;;;15.13;5.72;;;18.00;40.70;;;;;;4918249;29;20178;-75
2022/03/26 10:02:39;;;;;;;14.55;6.60;;;18.10;41.40;;;;;;4916602;29;20146;-75
2022/03/26 10:05:12;;;;;;;13.82;5.90;;;18.20;42.40;;;;;;4898205;29;20072;-75
2022/03/26 10:07:40;;;;;;;13.95;6.47;;;18.30;41.90;;;;;;4908973;29;20142;-77
2022/03/26 10:10:12;;;;;;;13.20;6.65;;;18.50;40.80;;;;;;4899468;29;20098;-77
2022/03/26 10:12:42;;;;;;;14.63;5.45;;;18.50;40.30;;;;;;4900301;29;20051;-77
2022/03/26 10:15:09;;;;;;;8.73;4.10;;;18.50;40.90;;;;;;4919228;29;22559;-77
2022/03/26 10:17:37;;;;;;;9.90;4.63;;;18.50;39.40;;;;;;4918683;29;20427;-75
2022/03/26 10:20:07;;;;;;;11.70;4.90;;;18.70;39.60;;;;;;4887152;29;22528;-76
2022/03/26 10:22:51;;;;;;;12.38;5.40;;;18.80;41.20;;;;;;4901482;29;20119;-75
2022/03/26 10:25:25;;;;;;;17.38;6.18;;;18.80;40.20;;;;;;4896880;29;20518;-75
2022/03/26 10:27:59;;;;;;;11.93;5.10;;;18.90;39.10;;;;;;4889592;29;20070;-75
2022/03/26 10:33:27;;;;;;;13.40;4.75;;;18.90;39.90;;;;;;4924019;29;20066;-75
2022/03/26 10:35:59;;;;;;;9.15;3.50;;;19.10;38.70;;;;;;4908998;29;20059;-75
2022/03/26 10:38:42;;;;;;;12.60;4.32;;;18.90;38.40;;;;;;4920133;29;20052;-78
2022/03/26 10:41:10;;;;;;;12.38;5.75;;;19.00;39.80;;;;;;4920243;29;20098;-76
2022/03/26 10:43:39;;;;;;;10.88;5.88;;;19.00;39.70;;;;;;4920912;29;20095;-76
2022/03/26 10:46:07;;;;;;;11.65;4.90;;;19.00;39.20;;;;;;4912476;29;20423;-78
2022/03/26 10:48:36;;;;;;;14.48;5.72;;;19.10;38.60;;;;;;4919619;29;22419;-76
2022/03/26 10:51:13;;;;;;;16.17;5.63;;;19.20;40.40;;;;;;4924495;29;20095;-76
2022/03/26 10:53:42;;;;;;;14.73;5.57;;;19.30;40.30;;;;;;4892748;29;23512;-76
2022/03/26 10:56:12;;;;;;;14.45;5.07;;;19.40;39.10;;;;;;4896555;29;20067;-76
2022/03/26 10:58:41;;;;;;;17.15;4.80;;;19.50;38.30;;;;;;4908187;29;20087;-73
2022/03/26 11:01:08;;;;;;;11.35;5.07;;;19.50;37.90;;;;;;4887177;29;20131;-76
2022/03/26 11:03:36;;;;;;;12.25;5.63;;;19.30;37.80;;;;;;4896224;29;20135;-76
2022/03/26 11:06:09;;;;;;;9.95;4.47;;;19.30;38.20;;;;;;4910699;29;20175;-75
2022/03/26 11:08:37;;;;;;;10.25;5.07;;;19.50;36.50;;;;;;4920079;29;20100;-76
2022/03/26 11:11:11;;;;;;;9.57;4.43;;;19.60;36.90;;;;;;4913796;29;20970;-76
2022/03/26 11:13:50;;;;;;;10.93;5.35;;;19.60;37.30;;;;;;4903329;29;20408;-78
2022/03/26 11:16:39;;;;;;;10.40;4.63;;;19.60;37.50;;;;;;4902212;29;20043;-76
2022/03/26 11:19:28;;;;;;;12.05;5.53;;;19.70;37.00;;;;;;4901156;29;20059;-73
2022/03/26 11:22:16;;;;;;;13.05;5.47;;;19.60;37.40;;;;;;4904886;29;20096;-75
2022/03/26 11:25:21;;;;;;;16.60;5.45;;;19.80;38.60;;;;;;4901575;29;20066;-73
2022/03/26 11:28:17;;;;;;;10.95;5.18;;;20.00;39.10;;;;;;4905884;29;20052;-76
2022/03/26 11:30:57;;;;;;;12.88;5.20;;;20.20;37.40;;;;;;4923641;29;20075;-76
2022/03/26 11:33:24;;;;;;;13.13;5.10;;;20.20;36.40;;;;;;4912932;29;20047;-76
2022/03/26 11:35:58;;;;;;;10.27;3.90;;;20.30;36.30;;;;;;4917778;29;20059;-77
2022/03/26 11:38:28;;;;;;;8.43;3.78;;;20.40;36.10;;;;;;4903668;29;20084;-77
2022/03/26 11:41:06;;;;;;;9.88;4.60;;;20.40;35.60;;;;;;4898445;29;20050;-77
2022/03/26 11:43:42;;;;;;;11.52;4.38;;;20.40;35.40;;;;;;4921019;29;20111;-76
2022/03/26 11:52:14;;;;;;;8.50;3.25;;;20.30;34.20;;;;;;4901982;29;21338;-76
2022/03/26 11:54:42;;;;;;;9.02;2.78;;;20.30;33.70;;;;;;4901406;29;20727;-76
2022/03/26 11:57:18;;;;;;;10.07;2.58;;;20.40;33.40;;;;;;4915772;29;20079;-76
2022/03/26 11:59:46;;;;;;;9.02;2.70;;;20.40;34.20;;;;;;4918961;29;20060;-76
2022/03/26 12:02:28;;;;;;;7.45;3.08;;;20.30;33.30;;;;;;4891888;29;20072;-76
2022/03/26 12:04:58;;;;;;;6.00;2.63;;;20.20;34.40;;;;;;4893535;29;20059;-76
2022/03/26 12:07:29;;;;;;;10.80;2.83;;;20.20;33.40;;;;;;4893783;29;20145;-78
2022/03/26 12:10:09;;;;;;;6.25;2.30;;;20.30;33.30;;;;;;4915501;29;20541;-76
2022/03/26 12:12:58;;;;;;;9.32;2.90;;;20.20;32.70;;;;;;4902404;29;20056;-76
2022/03/26 12:15:31;;;;;;;4.63;1.92;;;20.20;32.20;;;;;;4908024;29;20047;-76
2022/03/26 12:18:09;;;;;;;5.28;2.03;;;20.30;32.50;;;;;;4923492;29;20052;-76
2022/03/26 12:20:48;;;;;;;6.47;2.65;;;20.40;32.20;;;;;;4905591;29;20056;-76
2022/03/26 12:23:28;;;;;;;8.57;2.40;;;20.50;30.20;;;;;;4916129;29;22501;-76
2022/03/26 12:25:59;;;;;;;6.95;2.50;;;20.30;30.70;;;;;;4904116;29;22210;-76
2022/03/26 12:28:26;;;;;;;6.20;3.03;;;20.20;29.90;;;;;;4899593;29;20996;-76
2022/03/26 12:31:05;;;;;;;11.38;3.58;;;20.30;30.00;;;;;;4917745;29;20103;-76
2022/03/26 12:33:41;;;;;;;12.05;4.85;;;20.40;30.30;;;;;;4921238;29;20044;-79
2022/03/26 12:36:09;;;;;;;11.52;4.47;;;20.40;30.70;;;;;;4905289;29;20056;-77
2022/03/26 12:38:36;;;;;;;13.43;4.60;;;20.30;29.70;;;;;;4894532;29;20048;-79
2022/03/26 12:41:06;;;;;;;10.95;4.40;;;20.30;30.50;;;;;;4900742;29;20062;-77
2022/03/26 12:43:34;;;;;;;11.45;4.78;;;20.30;29.90;;;;;;4901513;29;20051;-78
2022/03/26 12:46:07;;;;;;;12.57;5.05;;;20.40;30.00;;;;;;4902841;29;20137;-78
2022/03/26 12:48:34;;;;;;;;;;;20.30;29.90;;;;;;4918117;29;20048;-76
2022/03/26 12:51:03;;;;;;;13.25;4.50;;;20.10;29.10;;;;;;4916512;29;19931;-76
2022/03/26 12:53:40;;;;;;;11.85;5.05;;;20.10;29.50;;;;;;4911055;29;20074;-76
2022/03/26 12:56:12;;;;;;;12.82;5.50;;;20.30;29.90;;;;;;4891357;29;20052;-80
2022/03/26 12:58:57;;;;;;;;;;;20.30;30.00;;;;;;4892722;29;20054;-76
2022/03/26 13:01:25;;;;;;;17.08;5.40;;;20.50;30.30;;;;;;4897019;29;20305;-76